createdAt,value
2019-05-11T00:01:46.805Z,11.90
2019-05-11T00:04:14.328Z,11.90
2019-05-11T00:06:41.889Z,12.00
2019-05-11T00:09:09.369Z,12.00
2019-05-11T00:11:36.903Z,12.00
2019-05-11T00:14:06.143Z,12.00
2019-05-11T00:16:34.218Z,12.00
2019-05-11T00:19:01.940Z,11.90
2019-05-11T00:21:29.623Z,11.90
2019-05-11T00:23:57.111Z,11.80
2019-05-11T00:26:24.742Z,11.80
2019-05-11T00:28:52.217Z,11.80
2019-05-11T00:31:19.922Z,11.80
2019-05-11T00:33:47.579Z,11.80
2019-05-11T00:36:15.041Z,11.80
2019-05-11T00:38:42.474Z,11.80
2019-05-11T00:41:10.093Z,11.90
2019-05-11T00:43:37.812Z,11.90
2019-05-11T00:46:05.291Z,11.90
2019-05-11T00:48:32.917Z,11.90
2019-05-11T00:51:00.454Z,11.80
2019-05-11T00:53:28.104Z,11.80
2019-05-11T00:55:55.614Z,11.80
2019-05-11T00:58:23.152Z,11.80
2019-05-11T01:01:18.177Z,11.90
2019-05-11T01:03:49.947Z,11.90
2019-05-11T01:06:17.435Z,12.00
2019-05-11T01:08:45.282Z,12.00
2019-05-11T01:11:15.929Z,12.00
2019-05-11T01:13:43.666Z,12.00
2019-05-11T01:16:11.262Z,12.00
2019-05-11T01:18:38.715Z,12.00
2019-05-11T01:21:06.190Z,12.10
2019-05-11T01:23:33.757Z,12.10
2019-05-11T01:26:02.519Z,12.10
2019-05-11T01:28:30.086Z,12.20
2019-05-11T01:30:57.664Z,12.10
2019-05-11T01:33:25.119Z,12.10
2019-05-11T01:35:52.697Z,12.00
2019-05-11T01:38:20.191Z,11.90
2019-05-11T01:40:58.193Z,11.80
2019-05-11T01:43:17.085Z,11.80
2019-05-11T01:45:44.579Z,11.80
2019-05-11T01:48:12.034Z,11.80
2019-05-11T01:50:39.603Z,11.80
2019-05-11T01:53:07.187Z,11.90
2019-05-11T01:55:34.630Z,11.90
2019-05-11T01:58:02.159Z,12.00
2019-05-11T02:00:30.027Z,12.00
2019-05-11T02:03:21.218Z,12.10
2019-05-11T02:05:52.375Z,12.10
2019-05-11T02:08:19.861Z,12.10
2019-05-11T02:10:47.369Z,12.20
2019-05-11T02:13:14.869Z,12.20
2019-05-11T02:15:42.343Z,12.20
2019-05-11T02:18:09.828Z,12.20
2019-05-11T02:20:38.017Z,12.20
2019-05-11T02:23:05.678Z,12.30
2019-05-11T02:25:33.210Z,12.30
2019-05-11T02:28:00.705Z,12.30
2019-05-11T02:30:28.407Z,12.30
2019-05-11T02:32:55.857Z,12.30
2019-05-11T02:35:23.474Z,12.20
2019-05-11T02:37:50.952Z,12.20
2019-05-11T02:40:20.190Z,12.10
2019-05-11T02:42:47.723Z,12.00
2019-05-11T02:45:19.959Z,12.00
2019-05-11T02:47:47.362Z,11.90
2019-05-11T02:50:14.840Z,12.00
2019-05-11T02:52:42.264Z,12.00
2019-05-11T02:55:10.140Z,12.00
2019-05-11T02:57:37.834Z,12.20
2019-05-11T03:00:06.494Z,12.30
2019-05-11T03:02:34.116Z,12.40
2019-05-11T03:05:01.671Z,12.30
2019-05-11T03:07:30.483Z,12.40
2019-05-11T03:09:57.960Z,12.40
2019-05-11T03:12:25.427Z,12.40
2019-05-11T03:14:52.951Z,12.50
2019-05-11T03:17:24.090Z,12.50
2019-05-11T03:19:51.614Z,12.40
2019-05-11T03:22:19.059Z,12.40
2019-05-11T03:24:47.504Z,12.30
2019-05-11T03:27:14.981Z,12.30
2019-05-11T03:29:42.448Z,12.30
2019-05-11T03:32:09.958Z,12.40
2019-05-11T03:34:39.085Z,12.40
2019-05-11T03:37:06.900Z,12.50
2019-05-11T03:39:34.393Z,12.50
2019-05-11T03:42:13.884Z,12.50
2019-05-11T03:44:31.747Z,12.60
2019-05-11T03:46:59.245Z,12.60
2019-05-11T03:49:26.837Z,12.70
2019-05-11T03:51:54.365Z,12.70
2019-05-11T03:54:22.453Z,12.80
2019-05-11T03:56:50.106Z,12.90
2019-05-11T03:59:17.721Z,13.00
2019-05-11T04:01:45.304Z,13.10
2019-05-11T04:04:16.376Z,13.20
2019-05-11T04:06:42.663Z,13.30
2019-05-11T04:09:10.313Z,13.40
2019-05-11T04:11:37.987Z,13.40
2019-05-11T04:14:08.532Z,13.50
2019-05-11T04:16:36.273Z,13.60
2019-05-11T04:19:03.916Z,13.60
2019-05-11T04:21:31.403Z,13.70
2019-05-11T04:23:58.959Z,13.80
2019-05-11T04:26:26.484Z,13.80
2019-05-11T04:28:54.006Z,13.80
2019-05-11T04:31:21.563Z,13.90
2019-05-11T04:33:49.122Z,13.90
2019-05-11T04:36:16.788Z,13.90
2019-05-11T04:38:44.243Z,13.90
2019-05-11T04:41:11.789Z,14.00
2019-05-11T04:43:39.319Z,14.00
2019-05-11T04:46:06.838Z,14.00
2019-05-11T04:48:34.527Z,14.10
2019-05-11T04:51:01.987Z,14.10
2019-05-11T04:53:38.870Z,14.10
2019-05-11T04:56:07.010Z,14.20
2019-05-11T04:58:35.202Z,14.20
2019-05-11T05:01:02.865Z,14.20
2019-05-11T05:03:40.225Z,14.20
2019-05-11T05:06:20.830Z,14.20
2019-05-11T05:08:29.202Z,14.30
2019-05-11T05:10:58.470Z,14.30
2019-05-11T05:13:29.437Z,14.30
2019-05-11T05:15:55.579Z,14.40
2019-05-11T05:18:23.283Z,14.40
2019-05-11T05:20:51.917Z,14.40
2019-05-11T05:23:19.487Z,14.50
2019-05-11T05:25:46.972Z,14.50
2019-05-11T05:28:14.498Z,14.60
2019-05-11T05:30:41.957Z,14.60
2019-05-11T05:33:09.390Z,14.60
2019-05-11T05:35:36.934Z,14.60
2019-05-11T05:38:04.829Z,14.60
2019-05-11T05:40:32.418Z,14.60
2019-05-11T05:43:01.730Z,14.70
2019-05-11T05:45:29.222Z,14.80
2019-05-11T05:47:56.834Z,14.80
2019-05-11T05:50:34.125Z,14.90
2019-05-11T05:53:04.433Z,14.90
2019-05-11T05:55:33.429Z,14.80
2019-05-11T05:58:04.295Z,14.90
2019-05-11T06:00:31.923Z,14.90
2019-05-11T06:03:00.923Z,14.90
2019-05-11T06:05:28.399Z,15.00
2019-05-11T06:07:56.049Z,14.90
2019-05-11T06:10:23.519Z,14.90
2019-05-11T06:12:51.057Z,14.90
2019-05-11T06:15:18.545Z,14.90
2019-05-11T06:17:46.184Z,14.90
2019-05-11T06:20:13.801Z,14.90
2019-05-11T06:22:41.308Z,14.90
2019-05-11T06:25:08.777Z,14.90
2019-05-11T06:27:36.297Z,14.90
2019-05-11T06:30:04.334Z,14.90
2019-05-11T06:32:31.851Z,14.80
2019-05-11T06:34:59.402Z,14.80
2019-05-11T06:37:27.975Z,14.80
2019-05-11T06:39:55.611Z,14.70
2019-05-11T06:42:23.119Z,14.70
2019-05-11T06:44:50.599Z,14.70
2019-05-11T06:47:18.099Z,14.70
2019-05-11T06:49:46.588Z,14.60
2019-05-11T06:52:14.191Z,14.60
2019-05-11T06:54:41.702Z,14.60
2019-05-11T06:57:09.183Z,14.60
2019-05-11T06:59:36.663Z,14.70
2019-05-11T07:02:04.217Z,15.00
2019-05-11T07:04:31.675Z,15.30
2019-05-11T07:06:59.189Z,15.50
2019-05-11T07:09:26.690Z,15.80
2019-05-11T07:11:54.259Z,15.90
2019-05-11T07:14:21.827Z,15.90
2019-05-11T07:16:49.452Z,15.80
2019-05-11T07:19:17.241Z,15.80
2019-05-11T07:21:44.931Z,15.70
2019-05-11T07:24:13.400Z,15.60
2019-05-11T07:26:41.076Z,15.50
2019-05-11T07:29:08.629Z,15.70
2019-05-11T07:31:36.133Z,15.80
2019-05-11T07:34:03.886Z,16.00
2019-05-11T07:36:31.382Z,16.20
2019-05-11T07:38:58.847Z,16.50
2019-05-11T07:41:28.115Z,16.70
2019-05-11T07:43:55.645Z,16.80
2019-05-11T07:46:23.254Z,16.80
2019-05-11T07:48:50.852Z,16.70
2019-05-11T07:51:18.450Z,16.70
2019-05-11T07:53:48.463Z,16.70
2019-05-11T07:56:15.440Z,16.80
2019-05-11T07:58:42.950Z,16.70
2019-05-11T08:01:10.432Z,16.60
2019-05-11T08:04:07.580Z,16.50
2019-05-11T08:06:35.802Z,16.60
2019-05-11T08:09:08.307Z,16.90
2019-05-11T08:11:35.474Z,17.20
2019-05-11T08:14:04.034Z,17.50
2019-05-11T08:16:31.543Z,17.80
2019-05-11T08:18:59.168Z,18.00
2019-05-11T08:21:28.342Z,18.20
2019-05-11T08:23:58.548Z,18.40
2019-05-11T08:26:28.073Z,18.70
2019-05-11T08:28:55.054Z,18.70
2019-05-11T08:31:22.546Z,19.00
2019-05-11T08:33:51.071Z,19.00
2019-05-11T08:36:18.689Z,19.10
2019-05-11T08:38:48.200Z,19.30
2019-05-11T08:41:15.519Z,19.30
2019-05-11T08:43:43.041Z,19.20
2019-05-11T08:46:10.587Z,19.00
2019-05-11T08:48:38.860Z,18.90
2019-05-11T08:51:08.442Z,18.90
2019-05-11T08:53:38.784Z,19.00
2019-05-11T08:56:08.898Z,19.10
2019-05-11T08:58:38.028Z,19.10
2019-05-11T09:01:05.351Z,19.00
2019-05-11T09:03:32.831Z,19.00
2019-05-11T09:06:00.367Z,19.00
2019-05-11T09:08:28.450Z,19.00
2019-05-11T09:10:58.260Z,19.20
2019-05-11T09:13:27.939Z,19.50
2019-05-11T09:15:55.706Z,19.80
2019-05-11T09:18:23.506Z,20.00
2019-05-11T09:20:51.331Z,19.80
2019-05-11T09:23:33.630Z,19.70
2019-05-11T09:25:49.325Z,19.40
2019-05-11T09:28:18.105Z,19.10
2019-05-11T09:30:48.206Z,19.00
2019-05-11T09:33:18.511Z,19.10
2019-05-11T09:35:49.978Z,19.20
2019-05-11T09:38:14.911Z,19.10
2019-05-11T09:40:42.367Z,18.90
2019-05-11T09:43:09.850Z,18.70
2019-05-11T09:45:47.936Z,18.80
2019-05-11T09:48:08.651Z,19.00
2019-05-11T09:50:38.640Z,19.20
2019-05-11T09:53:05.703Z,19.40
2019-05-11T09:55:33.252Z,19.80
2019-05-11T09:58:00.705Z,20.10
2019-05-11T10:00:29.622Z,20.60
2019-05-11T10:02:57.761Z,21.00
2019-05-11T10:05:25.361Z,21.00
2019-05-11T10:07:53.445Z,21.00
2019-05-11T10:10:20.941Z,20.90
2019-05-11T10:13:08.226Z,21.20
2019-05-11T10:15:38.365Z,21.40
2019-05-11T10:18:05.305Z,21.40
2019-05-11T10:20:32.861Z,21.60
2019-05-11T10:23:00.589Z,21.80
2019-05-11T10:25:28.647Z,21.80
2019-05-11T10:27:57.994Z,22.20
2019-05-11T10:30:27.824Z,22.60
2019-05-11T10:32:57.609Z,23.30
2019-05-11T10:35:24.561Z,23.30
2019-05-11T10:37:52.009Z,23.00
2019-05-11T10:40:19.478Z,22.90
2019-05-11T10:42:48.381Z,22.50
2019-05-11T10:45:17.999Z,22.30
2019-05-11T10:47:53.909Z,21.90
2019-05-11T10:50:20.926Z,21.30
2019-05-11T10:52:48.652Z,20.70
2019-05-11T10:55:19.014Z,20.30
2019-05-11T10:57:45.687Z,20.00
2019-05-11T11:00:15.050Z,19.80
2019-05-11T11:05:12.849Z,19.80
2019-05-11T11:07:40.355Z,21.10
2019-05-11T11:10:08.877Z,21.50
2019-05-11T11:12:38.520Z,22.10
2019-05-11T11:15:07.747Z,22.90
2019-05-11T11:17:37.981Z,23.80
2019-05-11T11:20:05.081Z,23.80
2019-05-11T11:22:39.414Z,23.40
2019-05-11T11:25:01.969Z,23.10
2019-05-11T11:27:30.551Z,23.00
2019-05-11T11:29:58.256Z,22.80
2019-05-11T11:32:27.910Z,22.50
2019-05-11T11:34:57.591Z,22.30
2019-05-11T11:37:24.955Z,22.40
2019-05-11T11:39:52.448Z,22.50
2019-05-11T11:42:19.927Z,22.60
2019-05-11T11:44:48.387Z,22.70
2019-05-11T11:47:20.984Z,22.90
2019-05-11T11:49:47.537Z,22.90
2019-05-11T11:52:15.099Z,23.00
2019-05-11T11:54:42.660Z,23.00
2019-05-11T11:57:10.291Z,22.70
2019-05-11T11:59:38.569Z,22.50
2019-05-11T12:02:08.563Z,22.30
2019-05-11T12:04:38.701Z,22.10
2019-05-11T12:07:05.422Z,21.90
2019-05-11T12:09:33.099Z,21.80
2019-05-11T12:12:00.654Z,21.60
2019-05-11T12:14:28.466Z,21.30
2019-05-11T12:17:04.860Z,21.20
2019-05-11T12:19:27.713Z,21.20
2019-05-11T12:21:54.817Z,21.20
2019-05-11T12:24:22.270Z,21.20
2019-05-11T12:26:49.706Z,21.10
2019-05-11T12:29:18.892Z,21.00
2019-05-11T12:31:48.506Z,21.40
2019-05-11T12:34:17.768Z,21.90
2019-05-11T12:36:45.369Z,22.20
2019-05-11T12:39:12.845Z,22.50
2019-05-11T12:41:40.357Z,22.80
2019-05-11T12:44:08.284Z,23.20
2019-05-11T12:46:37.360Z,23.90
2019-05-11T12:49:07.331Z,24.60
2019-05-11T12:51:34.994Z,24.80
2019-05-11T12:54:02.501Z,24.90
2019-05-11T12:56:29.999Z,24.70
2019-05-11T12:58:58.229Z,24.80
2019-05-11T13:01:25.802Z,24.80
2019-05-11T13:03:53.285Z,24.70
2019-05-11T13:06:20.834Z,24.50
2019-05-11T13:08:48.414Z,24.30
2019-05-11T13:11:18.422Z,24.20
2019-05-11T13:13:48.156Z,24.10
2019-05-11T13:16:14.981Z,24.10
2019-05-11T13:18:43.548Z,24.20
2019-05-11T13:21:11.607Z,24.10
2019-05-11T13:23:39.043Z,24.00
2019-05-11T13:26:08.577Z,23.90
2019-05-11T13:28:37.836Z,23.50
2019-05-11T13:31:05.605Z,23.40
2019-05-11T13:33:33.121Z,23.30
2019-05-11T13:36:00.743Z,23.00
2019-05-11T13:38:28.452Z,22.70
2019-05-11T13:40:55.988Z,22.40
2019-05-11T13:43:23.456Z,22.10
2019-05-11T13:45:50.956Z,21.80
2019-05-11T13:48:18.487Z,21.30
2019-05-11T13:50:47.948Z,20.60
2019-05-11T13:53:15.528Z,19.20
2019-05-11T13:55:43.387Z,18.30
2019-05-11T13:58:10.951Z,17.40
2019-05-11T14:00:38.937Z,16.80
2019-05-11T14:03:07.951Z,16.40
2019-05-11T14:05:37.704Z,16.10
2019-05-11T14:08:04.963Z,15.80
2019-05-11T14:10:32.423Z,15.50
2019-05-11T14:13:00.006Z,15.40
2019-05-11T14:15:28.464Z,15.30
2019-05-11T14:18:05.676Z,15.10
2019-05-11T14:20:25.630Z,15.00
2019-05-11T14:22:53.149Z,15.00
2019-05-11T14:25:20.765Z,15.20
2019-05-11T14:27:48.385Z,15.30
2019-05-11T14:30:16.146Z,15.60
2019-05-11T14:32:43.823Z,15.80
2019-05-11T14:35:12.455Z,16.00
2019-05-11T14:37:40.331Z,16.20
2019-05-11T14:40:08.801Z,16.40
2019-05-11T14:42:38.142Z,16.40
2019-05-11T14:45:08.480Z,16.40
2019-05-11T14:47:38.402Z,16.30
2019-05-11T14:50:08.416Z,15.90
2019-05-11T14:52:35.510Z,15.00
2019-05-11T14:55:03.145Z,14.30
2019-05-11T14:57:31.702Z,13.80
2019-05-11T14:59:59.171Z,13.50
2019-05-11T15:02:45.043Z,13.30
2019-05-11T15:05:13.147Z,13.00
2019-05-11T15:07:40.912Z,12.80
2019-05-11T15:10:10.255Z,12.60
2019-05-11T15:12:38.029Z,12.40
2019-05-11T15:15:07.980Z,12.30
2019-05-11T15:17:35.695Z,12.30
2019-05-11T15:20:03.750Z,12.40
2019-05-11T15:22:31.293Z,12.50
2019-05-11T15:24:58.927Z,12.50
2019-05-11T15:27:28.778Z,12.60
2019-05-11T15:29:55.813Z,12.70
2019-05-11T15:32:23.491Z,12.90
2019-05-11T15:34:50.958Z,13.20
2019-05-11T15:37:18.478Z,13.50
2019-05-11T15:39:48.227Z,13.80
2019-05-11T15:42:19.550Z,14.00
2019-05-11T15:44:48.307Z,14.20
2019-05-11T15:47:15.343Z,14.30
2019-05-11T15:49:42.917Z,14.50
2019-05-11T15:52:10.506Z,14.60
2019-05-11T15:54:38.526Z,14.70
2019-05-11T15:57:08.374Z,14.70
2019-05-11T15:59:35.686Z,14.60
2019-05-11T16:02:03.299Z,14.40
2019-05-11T16:04:31.052Z,14.30
2019-05-11T16:07:00.145Z,14.20
2019-05-11T16:09:28.994Z,14.20
2019-05-11T16:11:56.799Z,14.10
2019-05-11T16:14:24.250Z,14.10
2019-05-11T16:16:52.009Z,13.90
2019-05-11T16:19:19.573Z,13.90
2019-05-11T16:21:47.157Z,13.90
2019-05-11T16:24:14.695Z,14.00
2019-05-11T16:26:42.302Z,14.10
2019-05-11T16:29:11.502Z,14.20
2019-05-11T16:31:39.301Z,14.40
2019-05-11T16:34:08.024Z,14.60
2019-05-11T16:36:35.694Z,14.70
2019-05-11T16:39:09.986Z,14.70
2019-05-11T16:41:38.227Z,14.70
2019-05-11T16:44:07.685Z,14.60
2019-05-11T16:46:34.794Z,14.50
2019-05-11T16:49:02.345Z,14.30
2019-05-11T16:51:29.787Z,14.20
2019-05-11T16:53:58.732Z,14.10
2019-05-11T16:56:26.328Z,13.90
2019-05-11T16:58:54.894Z,13.80
2019-05-11T17:01:22.651Z,13.70
2019-05-11T17:03:50.131Z,13.50
2019-05-11T17:06:19.743Z,13.50
2019-05-11T17:08:48.664Z,13.40
2019-05-11T17:11:18.479Z,13.30
2019-05-11T17:13:48.170Z,13.10
2019-05-11T17:16:15.236Z,12.90
2019-05-11T17:18:43.783Z,12.70
2019-05-11T17:21:11.291Z,12.50
2019-05-11T17:23:38.786Z,12.30
2019-05-11T17:26:08.531Z,12.20
2019-05-11T17:28:37.889Z,12.10
2019-05-11T17:31:05.093Z,12.00
2019-05-11T17:33:32.647Z,12.00
2019-05-11T17:36:00.128Z,11.90
2019-05-11T17:38:28.163Z,11.90
2019-05-11T17:40:57.709Z,11.90
2019-05-11T17:43:25.219Z,11.90
2019-05-11T17:45:52.839Z,11.90
2019-05-11T17:48:20.345Z,11.90
2019-05-11T17:50:47.987Z,11.90
2019-05-11T17:53:17.738Z,11.80
2019-05-11T17:55:45.020Z,11.70
2019-05-11T17:58:12.490Z,11.70
2019-05-11T18:00:40.149Z,11.70
2019-05-11T18:03:11.244Z,11.80
2019-05-11T18:05:38.633Z,11.70
2019-05-11T18:08:08.561Z,11.80
2019-05-11T18:10:38.308Z,11.80
2019-05-11T18:13:05.382Z,11.60
2019-05-11T18:15:32.853Z,11.50
2019-05-11T18:18:00.340Z,11.40
2019-05-11T18:20:28.631Z,11.50
2019-05-11T18:22:57.777Z,11.40
2019-05-11T18:25:25.462Z,11.40
2019-05-11T18:27:53.008Z,11.30
2019-05-11T18:30:20.714Z,11.20
2019-05-11T18:32:49.188Z,11.20
2019-05-11T18:35:19.351Z,11.10
2019-05-11T18:37:47.749Z,11.00
2019-05-11T18:40:18.645Z,11.00
2019-05-11T18:42:48.485Z,10.90
2019-05-11T18:45:15.534Z,10.90
2019-05-11T18:47:43.463Z,10.80
2019-05-11T18:50:11.170Z,10.80
2019-05-11T18:52:38.680Z,10.70
2019-05-11T18:55:08.357Z,10.60
2019-05-11T18:57:38.406Z,10.60
2019-05-11T19:00:08.175Z,10.60
2019-05-11T19:02:38.496Z,10.60
2019-05-11T19:05:05.759Z,10.50
2019-05-11T19:07:34.370Z,10.50
2019-05-11T19:10:01.838Z,10.50
2019-05-11T19:12:29.471Z,10.50
2019-05-11T19:14:58.714Z,10.50
2019-05-11T19:17:28.856Z,10.50
2019-05-11T19:19:57.946Z,10.40
2019-05-11T19:22:25.477Z,10.30
2019-05-11T19:24:53.173Z,10.30
2019-05-11T19:27:20.902Z,10.30
2019-05-11T19:29:48.502Z,10.30
2019-05-11T19:32:18.985Z,10.20
2019-05-11T19:34:47.698Z,10.20
2019-05-11T19:37:15.224Z,10.20
2019-05-11T19:39:42.896Z,10.20
2019-05-11T19:42:11.599Z,10.10
2019-05-11T19:44:39.336Z,10.10
2019-05-11T19:47:08.952Z,10.10
2019-05-11T19:49:38.409Z,10.10
2019-05-11T19:52:08.385Z,10.10
2019-05-11T19:54:38.003Z,10.00
2019-05-11T19:57:05.355Z,10.00
2019-05-11T19:59:32.963Z,10.00
2019-05-11T20:02:00.481Z,10.00
2019-05-11T20:04:28.415Z,10.00
2019-05-11T20:06:58.267Z,10.00
2019-05-11T20:09:28.158Z,10.00
2019-05-11T20:11:55.358Z,9.90
2019-05-11T20:14:22.892Z,9.90
2019-05-11T20:16:50.494Z,9.90
2019-05-11T20:19:18.726Z,9.90
2019-05-11T20:21:48.444Z,9.90
2019-05-11T20:24:18.513Z,9.90
2019-05-11T20:26:45.749Z,9.90
2019-05-11T20:29:13.623Z,9.90
2019-05-11T20:31:41.332Z,9.80
2019-05-11T20:34:08.999Z,9.80
2019-05-11T20:36:36.725Z,9.80
2019-05-11T20:39:06.622Z,9.90
2019-05-11T20:41:38.303Z,9.90
2019-05-11T20:44:05.732Z,9.90
2019-05-11T20:46:38.267Z,9.90
2019-05-11T20:49:06.226Z,9.90
2019-05-11T20:51:37.008Z,9.90
2019-05-11T20:54:03.432Z,9.90
2019-05-11T20:56:31.077Z,9.90
2019-05-11T20:58:59.662Z,9.90
2019-05-11T21:01:30.286Z,9.90
2019-05-11T21:03:58.600Z,9.80
2019-05-11T21:06:29.002Z,9.80
2019-05-11T21:08:56.062Z,9.80
2019-05-11T21:11:23.833Z,9.80
2019-05-11T21:13:51.499Z,9.80
2019-05-11T21:16:19.239Z,9.70
2019-05-11T21:18:46.945Z,9.70
2019-05-11T21:21:14.949Z,9.60
2019-05-11T21:23:42.688Z,9.60
2019-05-11T21:26:11.493Z,9.60
2019-05-11T21:28:39.208Z,9.50
2019-05-11T21:31:08.027Z,9.50
2019-05-11T21:33:37.885Z,9.50
2019-05-11T21:36:05.592Z,9.50
2019-05-11T21:38:33.255Z,9.50
2019-05-11T21:41:01.008Z,9.50
2019-05-11T21:43:28.681Z,9.40
2019-05-11T21:45:58.258Z,9.40
2019-05-11T21:48:27.904Z,9.40
2019-05-11T21:50:55.396Z,9.40
2019-05-11T21:53:23.095Z,9.30
2019-05-11T21:55:50.739Z,9.30
2019-05-11T21:58:18.613Z,9.30
2019-05-11T22:00:49.792Z,9.30
2019-05-11T22:03:19.313Z,9.20
2019-05-11T22:05:48.465Z,9.20
2019-05-11T22:08:17.850Z,9.20
2019-05-11T22:10:46.065Z,9.20
2019-05-11T22:13:13.567Z,9.20
2019-05-11T22:15:41.095Z,9.20
2019-05-11T22:18:08.722Z,9.20
2019-05-11T22:20:40.549Z,9.10
2019-05-11T22:23:08.408Z,9.10
2019-05-11T22:25:38.160Z,9.00
2019-05-11T22:28:05.615Z,9.00
2019-05-11T22:30:33.204Z,9.00
2019-05-11T22:33:00.864Z,9.00
2019-05-11T22:35:28.802Z,8.90
2019-05-11T22:37:57.805Z,8.90
2019-05-11T22:40:27.786Z,8.80
2019-05-11T22:42:55.051Z,8.80
2019-05-11T22:45:22.695Z,8.80
2019-05-11T22:47:50.270Z,8.80
2019-05-11T22:50:18.609Z,8.90
2019-05-11T22:52:48.438Z,8.90
2019-05-11T22:55:18.367Z,8.80
2019-05-11T22:57:45.498Z,8.80
2019-05-11T23:00:13.298Z,8.90
2019-05-11T23:02:41.538Z,8.80
2019-05-11T23:05:09.182Z,8.80
2019-05-11T23:07:37.671Z,8.80
2019-05-11T23:10:08.631Z,8.80
2019-05-11T23:12:37.975Z,8.80
2019-05-11T23:15:11.908Z,8.80
2019-05-11T23:17:41.148Z,8.80
2019-05-11T23:20:09.945Z,8.90
2019-05-11T23:22:56.449Z,9.00
2019-05-11T23:25:18.251Z,9.00
2019-05-11T23:27:48.241Z,9.00
2019-05-11T23:30:16.185Z,9.00
2019-05-11T23:32:43.736Z,9.00
2019-05-11T23:35:11.618Z,9.00
2019-05-11T23:37:42.482Z,9.00
2019-05-11T23:40:09.286Z,9.00
2019-05-11T23:42:38.082Z,8.90
2019-05-11T23:45:08.383Z,8.90
2019-05-11T23:47:38.991Z,8.90
2019-05-11T23:50:08.033Z,8.90
2019-05-11T23:52:37.451Z,8.90
2019-05-11T23:55:04.990Z,8.90
2019-05-11T23:57:33.310Z,8.90
